Webcam

2018/10/17 23:20 EBBR 172320Z 01003KT 9999 BKN028 13/11 Q1022 NOSIG

Webcam

--- Refresh now ---